Time;durP1;ratioP1;P1;durP2;ratioP2;P2;SDS_P1;SDS_P2;PMS_P1;PMS_P2;Temp;Humidity;BMP_temperature;BMP_pressure;BME280_temperature;BME280_humidity;BME280_pressure;Samples;Min_cycle;Max_cycle;Signal;HPM_P1;HPM_P2
2022/03/10 00:01:32;;;;;;;40.67;22.40;;;6.80;76.20;;;;;;7345236;19;111418;-90
2022/03/10 00:03:59;;;;;;;38.43;20.67;;;6.80;76.20;;;;;;7345363;19;111825;-91
2022/03/10 00:06:27;;;;;;;39.93;21.43;;;6.80;75.60;;;;;;7343662;19;110140;-91
2022/03/10 00:08:54;;;;;;;38.30;20.00;;;6.70;75.90;;;;;;7346180;19;111252;-91
2022/03/10 00:11:21;;;;;;;39.40;21.00;;;6.70;75.60;;;;;;7343757;19;111924;-91
2022/03/10 00:13:48;;;;;;;38.70;19.93;;;6.70;75.60;;;;;;7344096;19;111506;-92
2022/03/10 00:16:15;;;;;;;38.70;20.43;;;6.60;75.40;;;;;;7346369;19;114944;-91
2022/03/10 00:18:43;;;;;;;40.43;21.70;;;6.60;75.60;;;;;;7345124;19;111128;-91
2022/03/10 00:21:10;;;;;;;43.77;22.87;;;6.50;75.70;;;;;;7351856;19;110787;-91
2022/03/10 00:23:37;;;;;;;40.27;20.87;;;6.40;76.50;;;;;;7343971;19;111850;-92
2022/03/10 00:26:04;;;;;;;39.90;21.60;;;6.40;76.00;;;;;;7344327;19;110279;-91
2022/03/10 00:28:32;;;;;;;42.17;22.93;;;6.40;76.00;;;;;;7345435;19;110647;-90
2022/03/10 00:31:00;;;;;;;40.07;21.23;;;6.30;77.30;;;;;;7343675;19;111872;-91
2022/03/10 00:33:27;;;;;;;42.97;23.27;;;6.20;76.80;;;;;;7345139;19;112035;-91
2022/03/10 00:35:54;;;;;;;41.50;21.87;;;6.20;76.70;;;;;;7344701;19;114574;-91
2022/03/10 00:38:21;;;;;;;37.40;21.67;;;6.20;76.80;;;;;;7344815;19;110762;-91
2022/03/10 00:40:48;;;;;;;43.40;22.30;;;6.20;77.00;;;;;;7339600;19;110556;-91
2022/03/10 00:43:15;;;;;;;43.13;22.70;;;6.10;76.90;;;;;;7350515;19;114016;-91
2022/03/10 00:45:42;;;;;;;47.30;21.97;;;6.10;77.20;;;;;;7343977;19;110034;-91
2022/03/10 00:48:10;;;;;;;43.50;22.90;;;6.10;77.00;;;;;;7344903;19;111297;-90
2022/03/10 00:50:37;;;;;;;46.37;23.97;;;6.00;77.00;;;;;;7341692;19;113830;-91
2022/03/10 00:53:05;;;;;;;45.77;24.07;;;6.00;77.20;;;;;;7343314;19;110244;-91
2022/03/10 00:55:33;;;;;;;55.47;24.67;;;5.90;78.30;;;;;;7344664;19;111377;-90
2022/03/10 00:58:00;;;;;;;44.30;24.07;;;5.80;79.90;;;;;;7344774;19;111911;-91
2022/03/10 01:00:28;;;;;;;44.33;24.07;;;5.70;80.40;;;;;;7343684;19;110432;-91
2022/03/10 01:02:56;;;;;;;44.90;23.53;;;5.70;80.30;;;;;;7343900;19;111734;-91
2022/03/10 01:05:24;;;;;;;56.40;25.30;;;5.70;79.80;;;;;;7348339;19;110798;-91
2022/03/10 01:07:51;;;;;;;45.07;24.10;;;5.60;80.90;;;;;;7343740;19;112075;-90
2022/03/10 01:10:19;;;;;;;49.57;24.67;;;5.60;82.10;;;;;;7341229;19;112259;-91
2022/03/10 01:12:47;;;;;;;48.53;24.70;;;5.50;80.80;;;;;;7344005;19;112880;-91
2022/03/10 01:15:23;;;;;;;50.07;26.10;;;5.50;82.30;;;;;;7342930;19;111530;-90
2022/03/10 01:17:55;;;;;;;49.17;24.23;;;5.40;83.60;;;;;;7343644;19;112206;-91
2022/03/10 01:20:24;;;;;;;49.87;24.83;;;5.30;83.60;;;;;;7343108;19;110930;-91
2022/03/10 01:22:51;;;;;;;50.67;24.63;;;5.30;84.40;;;;;;7342445;19;111034;-90
2022/03/10 01:25:19;;;;;;;45.40;23.70;;;5.20;85.10;;;;;;7349227;19;111776;-90
2022/03/10 01:27:46;;;;;;;45.23;22.73;;;5.20;84.50;;;;;;7343447;19;110782;-90
2022/03/10 01:30:14;;;;;;;44.33;22.50;;;5.20;82.90;;;;;;7343133;19;110665;-89
2022/03/10 01:32:41;;;;;;;49.73;24.20;;;5.20;82.30;;;;;;7343932;19;110610;-91
2022/03/10 01:35:09;;;;;;;44.13;23.33;;;5.20;84.10;;;;;;7344247;19;111754;-91
2022/03/10 01:37:39;;;;;;;44.53;24.13;;;5.20;84.00;;;;;;7342162;19;111176;-90
2022/03/10 01:40:11;;;;;;;41.63;22.30;;;5.10;84.60;;;;;;7342698;19;109918;-90
2022/03/10 01:42:39;;;;;;;49.60;23.87;;;5.10;84.80;;;;;;7343204;19;111889;-91
2022/03/10 01:45:07;;;;;;;45.23;22.93;;;5.00;85.50;;;;;;7343016;19;111177;-90
2022/03/10 01:47:37;;;;;;;42.10;22.77;;;4.90;85.10;;;;;;7347368;19;111376;-90
2022/03/10 01:50:08;;;;;;;46.43;21.43;;;4.90;85.30;;;;;;7343024;19;112174;-91
2022/03/10 01:52:36;;;;;;;46.17;23.13;;;5.00;84.60;;;;;;7346823;19;110487;-91
2022/03/10 01:55:03;;;;;;;44.80;22.73;;;5.00;84.20;;;;;;7349021;19;110415;-90
2022/03/10 01:57:31;;;;;;;53.20;23.70;;;5.00;84.10;;;;;;7349054;19;111701;-90
2022/03/10 01:59:58;;;;;;;45.20;23.50;;;4.90;85.40;;;;;;7347886;19;111641;-90
2022/03/10 02:02:25;;;;;;;46.47;22.17;;;4.90;85.80;;;;;;7349237;19;110768;-91
2022/03/10 02:04:55;;;;;;;46.37;22.07;;;4.90;86.10;;;;;;7349274;19;112829;-90
2022/03/10 02:10:16;;;;;;;41.53;21.93;;;4.80;86.30;;;;;;7354695;19;111570;-90
2022/03/10 02:12:52;;;;;;;45.87;21.17;;;4.80;85.00;;;;;;7349467;19;109701;-90
2022/03/10 02:18:17;;;;;;;47.03;23.00;;;4.80;85.20;;;;;;7349060;19;112070;-90
2022/03/10 02:20:44;;;;;;;45.10;22.63;;;4.80;86.20;;;;;;7348714;19;110534;-90
2022/03/10 02:23:14;;;;;;;40.57;20.87;;;4.70;85.30;;;;;;7347663;19;111184;-89
2022/03/10 02:25:41;;;;;;;42.37;22.13;;;4.70;85.10;;;;;;7347716;19;111711;-90
2022/03/10 02:28:08;;;;;;;42.80;20.97;;;4.70;85.10;;;;;;7348483;19;110023;-90
2022/03/10 02:30:36;;;;;;;39.93;21.00;;;4.70;84.70;;;;;;7347580;19;112067;-91
2022/03/10 02:33:03;;;;;;;39.63;21.07;;;4.70;84.80;;;;;;7353512;19;111376;-90
2022/03/10 02:35:31;;;;;;;44.43;21.67;;;4.70;85.30;;;;;;7348446;19;111359;-90
2022/03/10 02:37:58;;;;;;;44.27;21.17;;;4.70;87.50;;;;;;7347382;19;110752;-90
2022/03/10 02:40:26;;;;;;;41.90;20.73;;;4.70;88.20;;;;;;7347301;19;109881;-90
2022/03/10 02:42:53;;;;;;;42.37;20.67;;;4.60;88.70;;;;;;7347066;19;111330;-90
2022/03/10 02:45:22;;;;;;;36.80;19.70;;;4.70;88.50;;;;;;7347966;19;112091;-90
2022/03/10 02:47:50;;;;;;;41.27;22.33;;;4.60;87.60;;;;;;7346369;19;110659;-88
2022/03/10 02:50:17;;;;;;;39.60;20.47;;;4.70;88.20;;;;;;7347340;19;111451;-90
2022/03/10 02:52:44;;;;;;;39.00;20.00;;;4.60;87.90;;;;;;7342219;19;109878;-90
2022/03/10 02:55:11;;;;;;;38.73;19.53;;;4.60;87.10;;;;;;7352447;19;113535;-91
2022/03/10 02:57:39;;;;;;;38.13;20.37;;;4.60;86.90;;;;;;7346859;19;112116;-90
2022/03/10 03:00:08;;;;;;;34.50;19.83;;;4.60;86.60;;;;;;7346906;19;110836;-91
2022/03/10 03:02:36;;;;;;;38.50;20.47;;;4.60;86.80;;;;;;7343729;19;110318;-90
2022/03/10 03:05:04;;;;;;;37.63;19.30;;;4.60;86.30;;;;;;7346258;19;111793;-90
2022/03/10 03:07:31;;;;;;;37.73;19.00;;;4.60;86.30;;;;;;7347518;19;110247;-89
2022/03/10 03:09:59;;;;;;;34.27;19.03;;;4.60;86.40;;;;;;7347850;19;111247;-90
2022/03/10 03:12:26;;;;;;;36.67;19.27;;;4.60;86.40;;;;;;7345213;19;111018;-91
2022/03/10 03:14:54;;;;;;;43.97;20.90;;;4.50;86.30;;;;;;7345575;19;110111;-90
2022/03/10 03:17:21;;;;;;;43.07;19.90;;;4.50;88.60;;;;;;7352291;19;109792;-90
2022/03/10 03:19:48;;;;;;;40.37;20.60;;;4.40;89.90;;;;;;7347420;19;110079;-91
2022/03/10 03:22:15;;;;;;;36.17;19.93;;;4.30;89.10;;;;;;7348404;19;111574;-91
2022/03/10 03:24:44;;;;;;;35.97;19.37;;;4.30;89.10;;;;;;7347014;19;112201;-90
2022/03/10 03:27:12;;;;;;;36.67;18.97;;;4.30;88.50;;;;;;7346276;19;110020;-90
2022/03/10 03:29:40;;;;;;;39.97;19.80;;;4.30;87.70;;;;;;7346481;19;111467;-90
2022/03/10 03:32:07;;;;;;;37.37;19.03;;;4.30;87.40;;;;;;7345019;19;111786;-89
2022/03/10 03:34:34;;;;;;;43.10;18.93;;;4.30;87.30;;;;;;7345614;19;110311;-90
2022/03/10 03:37:01;;;;;;;43.63;20.53;;;4.30;87.90;;;;;;7350169;19;110799;-90
2022/03/10 03:39:28;;;;;;;39.50;20.30;;;4.30;88.60;;;;;;7344535;19;110258;-92
2022/03/10 03:41:55;;;;;;;39.07;19.53;;;4.40;87.90;;;;;;7345661;19;111909;-89
2022/03/10 03:44:22;;;;;;;37.97;18.77;;;4.30;88.10;;;;;;7344178;19;113064;-90
2022/03/10 03:46:49;;;;;;;36.73;19.60;;;4.30;89.20;;;;;;7344642;19;109915;-89
2022/03/10 03:49:16;;;;;;;35.43;19.80;;;4.30;88.40;;;;;;7344308;19;113362;-90
2022/03/10 03:51:43;;;;;;;38.57;20.10;;;4.20;89.90;;;;;;7340506;19;115332;-90
2022/03/10 03:54:10;;;;;;;37.07;19.03;;;4.20;89.10;;;;;;7343037;19;112716;-91
2022/03/10 03:56:38;;;;;;;39.53;19.87;;;4.30;89.00;;;;;;7344788;19;111474;-89
2022/03/10 03:59:05;;;;;;;44.17;20.47;;;4.20;90.20;;;;;;7352119;19;111302;-90
2022/03/10 04:01:33;;;;;;;32.80;18.60;;;4.30;89.90;;;;;;7345701;19;110734;-94
2022/03/10 04:04:00;;;;;;;41.63;20.47;;;4.30;89.30;;;;;;7344694;19;111883;-90
2022/03/10 04:06:28;;;;;;;41.47;20.27;;;4.30;89.40;;;;;;7338070;19;111763;-83
2022/03/10 04:08:55;;;;;;;37.93;19.87;;;4.30;90.30;;;;;;7334507;19;110782;-84
2022/03/10 04:11:22;;;;;;;36.13;20.13;;;4.30;90.30;;;;;;7336945;19;111933;-85
2022/03/10 04:13:50;;;;;;;38.87;19.77;;;4.30;90.50;;;;;;7338279;19;110578;-84
2022/03/10 04:16:17;;;;;;;38.27;20.10;;;4.30;90.70;;;;;;7339300;19;115325;-85
2022/03/10 04:18:45;;;;;;;36.83;19.40;;;4.20;90.50;;;;;;7336474;19;114786;-84
2022/03/10 04:21:12;;;;;;;38.63;20.17;;;4.20;90.80;;;;;;7344639;19;110551;-84
2022/03/10 04:23:39;;;;;;;41.87;19.80;;;4.10;90.80;;;;;;7338833;19;111828;-84
2022/03/10 04:26:06;;;;;;;36.57;19.07;;;4.10;90.80;;;;;;7338030;19;110272;-84
2022/03/10 04:28:33;;;;;;;42.00;21.03;;;4.10;90.70;;;;;;7337902;19;113088;-85
2022/03/10 04:31:01;;;;;;;39.47;19.27;;;4.10;90.90;;;;;;7337322;19;111819;-84
2022/03/10 04:33:28;;;;;;;40.10;20.23;;;4.10;91.10;;;;;;7335335;19;111348;-84
2022/03/10 04:35:56;;;;;;;40.23;20.47;;;4.10;91.60;;;;;;7338648;19;111274;-84
2022/03/10 04:38:24;;;;;;;38.23;20.33;;;4.10;91.50;;;;;;7338335;19;113810;-84
2022/03/10 04:40:51;;;;;;;40.57;19.63;;;4.10;91.40;;;;;;7337993;19;110534;-84
2022/03/10 04:43:19;;;;;;;41.53;20.43;;;4.10;91.30;;;;;;7342086;19;111715;-84
2022/03/10 04:45:46;;;;;;;38.20;19.83;;;4.10;91.30;;;;;;7338192;19;110638;-84
2022/03/10 04:48:13;;;;;;;39.03;19.43;;;4.10;91.20;;;;;;7334745;19;112442;-84
2022/03/10 04:50:40;;;;;;;43.83;20.43;;;4.10;91.20;;;;;;7336873;19;111769;-84
2022/03/10 04:53:07;;;;;;;43.03;20.83;;;4.00;91.70;;;;;;7335838;19;110732;-84
2022/03/10 04:55:35;;;;;;;38.83;20.43;;;4.00;91.50;;;;;;7337846;19;111233;-84
2022/03/10 04:58:02;;;;;;;39.67;19.83;;;4.00;91.60;;;;;;7337013;19;111580;-84
2022/03/10 05:00:29;;;;;;;38.90;20.00;;;4.00;91.80;;;;;;7337514;19;113926;-84
2022/03/10 05:02:57;;;;;;;39.53;20.67;;;4.00;91.70;;;;;;7337058;19;111537;-84
2022/03/10 05:05:25;;;;;;;44.97;20.57;;;4.10;91.70;;;;;;7343195;19;111862;-85
2022/03/10 05:07:52;;;;;;;39.60;20.33;;;4.10;91.90;;;;;;7336587;19;111910;-84
2022/03/10 05:10:19;;;;;;;43.97;20.37;;;4.10;91.90;;;;;;7337597;19;112226;-84
2022/03/10 05:12:54;;;;;;;43.00;21.10;;;4.10;92.00;;;;;;7335507;19;110957;-83
2022/03/10 05:15:23;;;;;;;40.63;20.43;;;4.10;91.90;;;;;;7336523;19;111666;-84
2022/03/10 05:17:51;;;;;;;44.37;20.87;;;4.10;92.10;;;;;;7336582;19;110503;-84
2022/03/10 05:20:19;;;;;;;42.23;21.50;;;4.10;92.40;;;;;;7337390;19;110283;-85
2022/03/10 05:22:52;;;;;;;43.30;20.50;;;4.10;92.50;;;;;;7336927;19;114197;-84
2022/03/10 05:25:20;;;;;;;46.37;21.13;;;4.10;92.50;;;;;;7342674;19;113299;-84
2022/03/10 05:27:48;;;;;;;45.93;20.97;;;4.10;92.20;;;;;;7342464;19;111793;-84
2022/03/10 05:30:18;;;;;;;42.20;20.47;;;4.10;92.40;;;;;;7343864;19;111793;-84
2022/03/10 05:32:46;;;;;;;40.60;20.53;;;4.10;92.10;;;;;;7341627;19;110217;-84
2022/03/10 05:35:14;;;;;;;44.77;21.10;;;4.20;92.30;;;;;;7344321;19;111399;-84
2022/03/10 05:37:43;;;;;;;46.33;20.97;;;4.10;92.60;;;;;;7343642;19;112086;-84
2022/03/10 05:40:13;;;;;;;43.03;21.13;;;4.20;92.70;;;;;;7342176;19;110178;-84
2022/03/10 05:42:42;;;;;;;44.03;20.90;;;4.10;92.60;;;;;;7341674;19;110716;-84
2022/03/10 05:45:11;;;;;;;48.23;21.07;;;4.10;92.60;;;;;;7343979;19;111799;-84
2022/03/10 05:47:39;;;;;;;48.33;21.23;;;4.10;92.70;;;;;;7346999;19;110887;-85
2022/03/10 05:50:08;;;;;;;42.07;22.30;;;4.10;92.70;;;;;;7343110;19;111801;-84
2022/03/10 05:52:35;;;;;;;41.30;20.90;;;4.10;93.20;;;;;;7340240;19;110495;-84
2022/03/10 05:55:04;;;;;;;44.00;20.87;;;4.10;92.90;;;;;;7341869;19;112951;-84
2022/03/10 05:57:32;;;;;;;39.60;19.73;;;4.10;92.90;;;;;;7341115;19;113599;-85
2022/03/10 05:59:59;;;;;;;39.67;20.80;;;4.10;93.00;;;;;;7343667;19;110758;-83
2022/03/10 06:02:26;;;;;;;41.23;21.10;;;4.00;92.80;;;;;;7342166;19;114573;-84
2022/03/10 06:04:59;;;;;;;41.33;21.13;;;4.00;93.10;;;;;;7342215;19;111793;-84
2022/03/10 06:07:27;;;;;;;38.67;21.60;;;4.00;92.90;;;;;;7342372;19;110395;-84
2022/03/10 06:09:55;;;;;;;39.17;21.27;;;4.00;93.30;;;;;;7346336;19;111929;-84
2022/03/10 06:12:30;;;;;;;40.87;20.60;;;4.00;93.30;;;;;;7342307;19;110515;-83
2022/03/10 06:14:58;;;;;;;41.70;20.53;;;3.90;93.40;;;;;;7343072;19;111423;-84
2022/03/10 06:17:26;;;;;;;39.20;20.30;;;3.90;93.40;;;;;;7341468;19;113639;-84
2022/03/10 06:19:53;;;;;;;42.77;21.27;;;3.90;93.40;;;;;;7342009;19;110405;-84
2022/03/10 06:22:22;;;;;;;41.67;21.73;;;4.00;93.70;;;;;;7342568;19;112584;-84
2022/03/10 06:24:50;;;;;;;47.37;21.23;;;4.00;93.70;;;;;;7340711;19;113813;-84
2022/03/10 06:27:18;;;;;;;43.37;21.00;;;4.00;94.30;;;;;;7340862;19;110442;-84
2022/03/10 06:29:45;;;;;;;43.47;21.13;;;4.00;93.90;;;;;;7341267;19;113841;-84
2022/03/10 06:32:15;;;;;;;44.07;20.67;;;4.00;93.90;;;;;;7344858;19;112548;-81
2022/03/10 06:34:42;;;;;;;38.17;20.63;;;4.10;93.70;;;;;;7341183;19;111707;-82
2022/03/10 06:37:12;;;;;;;45.57;20.80;;;4.10;93.90;;;;;;7339564;19;111985;-82
2022/03/10 06:39:40;;;;;;;45.03;21.27;;;4.20;94.00;;;;;;7338756;19;110423;-82
2022/03/10 06:42:08;;;;;;;42.90;20.07;;;4.20;93.90;;;;;;7342158;19;111452;-82
2022/03/10 06:44:36;;;;;;;38.23;20.90;;;4.30;94.00;;;;;;7341742;19;112413;-82
2022/03/10 06:47:05;;;;;;;40.17;20.30;;;4.30;94.10;;;;;;7340682;19;111037;-82
2022/03/10 06:49:32;;;;;;;42.07;20.97;;;4.40;94.10;;;;;;7339312;19;115136;-82
2022/03/10 06:52:00;;;;;;;39.63;21.07;;;4.50;94.30;;;;;;7337718;19;111749;-81
2022/03/10 06:54:27;;;;;;;41.97;21.03;;;4.50;94.40;;;;;;7343885;19;111302;-85
2022/03/10 06:56:54;;;;;;;43.67;21.90;;;4.60;94.50;;;;;;7341635;19;110795;-83
2022/03/10 06:59:21;;;;;;;45.30;22.43;;;4.60;94.60;;;;;;7341498;19;113351;-84
2022/03/10 07:01:48;;;;;;;40.80;20.63;;;4.70;94.70;;;;;;7340079;19;110845;-84
2022/03/10 07:04:20;;;;;;;42.20;21.67;;;4.80;94.90;;;;;;7340668;19;112998;-84
2022/03/10 07:06:48;;;;;;;41.30;21.30;;;4.80;95.00;;;;;;7339950;19;109919;-84
2022/03/10 07:09:15;;;;;;;42.03;20.83;;;4.90;94.90;;;;;;7340303;19;111737;-84
2022/03/10 07:11:42;;;;;;;46.27;21.50;;;5.00;95.20;;;;;;7341055;19;111846;-84
2022/03/10 07:14:09;;;;;;;41.57;21.23;;;5.10;95.20;;;;;;7339391;19;110601;-84
2022/03/10 07:16:36;;;;;;;40.67;21.07;;;5.20;95.50;;;;;;7346442;19;110748;-84
2022/03/10 07:19:08;;;;;;;38.80;21.40;;;5.30;95.50;;;;;;7341531;19;113904;-84
2022/03/10 07:21:40;;;;;;;43.13;21.27;;;5.40;95.70;;;;;;7338871;19;111379;-84
2022/03/10 07:24:07;;;;;;;42.20;21.67;;;5.50;95.50;;;;;;7341390;19;111946;-83
2022/03/10 07:26:34;;;;;;;39.27;21.70;;;5.60;95.40;;;;;;7341530;19;110125;-82
2022/03/10 07:29:02;;;;;;;41.53;22.10;;;5.70;95.40;;;;;;7341058;19;111436;-83
2022/03/10 07:31:33;;;;;;;40.97;21.97;;;5.80;95.50;;;;;;7339465;19;112119;-83
2022/03/10 07:34:00;;;;;;;42.03;20.80;;;5.90;95.40;;;;;;7338865;19;113240;-83
2022/03/10 07:36:28;;;;;;;41.63;20.83;;;6.00;95.30;;;;;;7343454;19;111497;-83
2022/03/10 07:38:57;;;;;;;41.27;21.77;;;6.10;95.30;;;;;;7340490;19;112004;-83
2022/03/10 07:41:25;;;;;;;44.53;22.70;;;6.20;95.30;;;;;;7339316;19;112759;-84
2022/03/10 07:43:52;;;;;;;43.33;22.93;;;6.30;95.30;;;;;;7339073;19;111811;-84
2022/03/10 07:46:22;;;;;;;40.93;21.57;;;6.40;95.40;;;;;;7340015;19;110141;-84
2022/03/10 07:48:52;;;;;;;42.73;21.33;;;6.50;95.30;;;;;;7335604;19;111498;-83
2022/03/10 07:51:20;;;;;;;43.70;21.73;;;6.60;95.20;;;;;;7337014;19;111318;-83
2022/03/10 07:53:47;;;;;;;39.87;21.43;;;6.70;95.10;;;;;;7338571;19;111103;-83
2022/03/10 07:56:15;;;;;;;41.37;22.23;;;6.80;95.20;;;;;;7340498;19;112947;-84
2022/03/10 07:58:42;;;;;;;43.37;21.57;;;7.00;95.60;;;;;;7343912;19;112698;-84
2022/03/10 08:01:12;;;;;;;44.87;22.47;;;7.00;95.20;;;;;;7338915;19;110778;-84
2022/03/10 08:03:48;;;;;;;39.97;21.40;;;7.10;95.10;;;;;;7339443;19;111918;-84
2022/03/10 08:06:16;;;;;;;42.67;21.37;;;7.20;95.20;;;;;;7339667;19;110252;-84
2022/03/10 08:08:44;;;;;;;42.37;21.77;;;7.40;95.00;;;;;;7338760;19;111864;-84
2022/03/10 08:11:11;;;;;;;42.77;21.63;;;7.50;95.10;;;;;;7339386;19;112049;-85
2022/03/10 08:13:38;;;;;;;40.93;21.03;;;7.60;94.90;;;;;;7338382;19;110698;-84
2022/03/10 08:16:05;;;;;;;38.30;21.80;;;7.80;94.90;;;;;;7339979;19;111490;-85
2022/03/10 08:18:33;;;;;;;36.33;20.55;;;7.80;94.80;;;;;;7339366;19;111109;-83
2022/03/10 08:21:05;;;;;;;41.13;21.17;;;8.00;94.60;;;;;;7342832;19;113488;-84
2022/03/10 08:23:32;;;;;;;41.67;22.03;;;8.20;94.60;;;;;;7339727;19;113485;-84
2022/03/10 08:25:59;;;;;;;41.70;20.67;;;8.30;94.40;;;;;;7339130;19;110808;-84
2022/03/10 08:28:26;;;;;;;46.22;21.38;;;8.40;94.20;;;;;;7334360;19;111483;-84
2022/03/10 08:30:53;;;;;;;41.08;21.38;;;8.50;94.00;;;;;;7340414;19;111795;-84
2022/03/10 08:33:21;;;;;;;37.45;21.45;;;8.70;93.90;;;;;;7339344;19;110489;-84
2022/03/10 08:35:48;;;;;;;38.50;21.38;;;8.70;93.80;;;;;;7339989;19;113629;-85
2022/03/10 08:38:16;;;;;;;41.45;22.45;;;8.80;94.00;;;;;;7339846;19;110753;-84
2022/03/10 08:40:44;;;;;;;40.03;20.92;;;9.00;93.80;;;;;;7333542;19;110613;-85
2022/03/10 08:43:12;;;;;;;40.67;22.38;;;9.00;93.80;;;;;;7343754;19;110946;-84
2022/03/10 08:45:40;;;;;;;42.28;23.55;;;9.10;93.70;;;;;;7338446;19;110260;-84
2022/03/10 08:48:07;;;;;;;41.85;23.17;;;9.30;93.60;;;;;;7338303;19;112718;-84
2022/03/10 08:50:35;;;;;;;40.55;23.58;;;9.40;93.40;;;;;;7337386;19;110728;-85
2022/03/10 08:53:05;;;;;;;42.75;22.15;;;9.50;93.40;;;;;;7335087;19;110694;-85
2022/03/10 08:55:32;;;;;;;41.47;21.92;;;9.60;93.20;;;;;;7336865;19;111771;-85
2022/03/10 08:58:00;;;;;;;37.63;21.38;;;9.80;93.30;;;;;;7338511;19;112008;-84
2022/03/10 09:00:27;;;;;;;39.55;21.02;;;9.90;93.10;;;;;;7338271;19;111133;-85
2022/03/10 09:02:59;;;;;;;35.28;20.15;;;10.00;93.10;;;;;;7344336;19;111390;-84
2022/03/10 09:05:26;;;;;;;42.85;20.65;;;10.10;93.00;;;;;;7350225;19;111732;-84
2022/03/10 09:07:53;;;;;;;38.28;21.23;;;10.20;92.90;;;;;;7344744;19;114581;-84
2022/03/10 09:10:20;;;;;;;35.67;20.15;;;10.20;92.80;;;;;;7344244;19;111324;-85
2022/03/10 09:12:47;;;;;;;39.15;21.30;;;10.30;92.80;;;;;;7342996;19;110019;-85
2022/03/10 09:15:16;;;;;;;40.75;20.73;;;10.50;92.90;;;;;;7340419;19;112354;-85
2022/03/10 09:17:44;;;;;;;38.50;20.80;;;10.60;92.80;;;;;;7343826;19;111794;-85
2022/03/10 09:20:13;;;;;;;34.25;20.10;;;10.70;92.50;;;;;;7345495;19;110733;-84
2022/03/10 09:22:42;;;;;;;38.78;21.50;;;10.80;92.50;;;;;;7343953;19;112642;-84
2022/03/10 09:25:09;;;;;;;35.65;20.90;;;11.00;92.40;;;;;;7343514;19;110735;-84
2022/03/10 09:27:37;;;;;;;35.60;20.73;;;11.10;92.20;;;;;;7346461;19;110387;-84
2022/03/10 09:30:08;;;;;;;34.20;21.45;;;11.20;92.00;;;;;;7343743;19;112000;-85
2022/03/10 09:32:39;;;;;;;38.90;20.27;;;11.30;92.10;;;;;;7343718;19;111062;-84
2022/03/10 09:35:08;;;;;;;39.25;21.05;;;11.40;92.10;;;;;;7340886;19;111432;-85
2022/03/10 09:37:36;;;;;;;36.53;20.58;;;11.50;91.90;;;;;;7343736;19;111938;-85
2022/03/10 09:40:04;;;;;;;35.35;19.92;;;11.70;91.80;;;;;;7341385;19;110061;-85
2022/03/10 09:42:34;;;;;;;36.85;21.55;;;11.80;91.70;;;;;;7342055;19;111956;-85
2022/03/10 09:45:09;;;;;;;32.42;19.70;;;11.90;91.60;;;;;;7341906;19;111775;-85
2022/03/10 09:47:41;;;;;;;38.53;21.08;;;12.00;91.20;;;;;;7345998;19;109919;-85
2022/03/10 09:50:11;;;;;;;38.05;20.38;;;12.10;91.00;;;;;;7342052;19;111669;-85
2022/03/10 09:52:40;;;;;;;35.10;20.15;;;12.20;90.90;;;;;;7339168;19;110281;-85
2022/03/10 09:55:08;;;;;;;31.88;19.55;;;12.30;90.80;;;;;;7340892;19;112255;-85
2022/03/10 09:57:41;;;;;;;31.35;19.90;;;12.40;90.80;;;;;;7343545;19;112021;-85
2022/03/10 10:00:13;;;;;;;33.40;19.60;;;12.60;90.70;;;;;;7342671;19;109884;-85
2022/03/10 10:02:42;;;;;;;35.08;19.95;;;12.60;90.40;;;;;;7342856;19;111552;-84
2022/03/10 10:05:28;;;;;;;31.23;18.80;;;12.60;90.80;;;;;;7343289;19;112016;-85
2022/03/10 10:08:08;;;;;;;27.38;18.05;;;12.80;90.60;;;;;;7340255;19;112011;-85
2022/03/10 10:10:50;;;;;;;32.95;18.67;;;12.80;90.40;;;;;;7348753;19;111589;-85
2022/03/10 10:13:32;;;;;;;31.52;17.98;;;12.90;90.30;;;;;;7341267;19;110553;-85
2022/03/10 10:16:05;;;;;;;31.20;18.58;;;13.10;90.00;;;;;;7341871;19;110410;-85
2022/03/10 10:18:34;;;;;;;33.63;19.08;;;13.20;90.00;;;;;;7340239;19;112286;-85
2022/03/10 10:21:12;;;;;;;29.88;17.73;;;13.30;89.60;;;;;;7341169;19;110137;-85
2022/03/10 10:23:40;;;;;;;28.33;17.52;;;13.50;89.30;;;;;;7340904;19;111600;-85
2022/03/10 10:26:12;;;;;;;28.95;17.33;;;13.60;89.50;;;;;;7342159;19;112131;-85
2022/03/10 10:28:47;;;;;;;29.30;18.10;;;13.70;89.20;;;;;;7342637;19;110144;-85
2022/03/10 10:31:16;;;;;;;30.45;17.90;;;13.80;88.80;;;;;;7341552;19;112741;-85
2022/03/10 10:33:59;;;;;;;29.85;18.33;;;14.00;88.90;;;;;;7348015;19;112440;-84
2022/03/10 10:36:29;;;;;;;29.33;17.75;;;14.10;88.40;;;;;;7342518;19;111479;-85
2022/03/10 10:39:07;;;;;;;28.67;17.90;;;14.20;87.30;;;;;;7340929;19;114828;-85
2022/03/10 10:41:34;;;;;;;31.27;17.85;;;14.30;87.30;;;;;;7342066;19;110758;-85
2022/03/10 10:44:07;;;;;;;27.30;17.40;;;14.40;86.80;;;;;;7342178;19;111296;-85
2022/03/10 10:46:39;;;;;;;31.60;17.20;;;14.50;86.90;;;;;;7341606;19;110771;-84
2022/03/10 10:49:16;;;;;;;29.65;17.73;;;14.60;85.90;;;;;;7341880;19;110201;-85
2022/03/10 10:51:45;;;;;;;30.25;17.88;;;14.60;85.70;;;;;;7340015;19;110902;-86
2022/03/10 10:54:21;;;;;;;31.95;17.13;;;14.70;85.90;;;;;;7340005;19;112229;-86
2022/03/10 10:57:03;;;;;;;28.17;17.05;;;14.80;85.40;;;;;;7347627;19;110304;-86
2022/03/10 10:59:34;;;;;;;28.05;17.17;;;14.90;85.20;;;;;;7342043;19;110633;-86
2022/03/10 11:02:11;;;;;;;39.38;17.85;;;15.00;85.00;;;;;;7338686;19;111505;-86
2022/03/10 11:04:43;;;;;;;29.00;16.70;;;15.10;84.00;;;;;;7341926;19;110844;-86
2022/03/10 11:07:11;;;;;;;33.10;17.27;;;15.10;83.60;;;;;;7340751;19;110817;-86
2022/03/10 11:09:41;;;;;;;30.55;17.13;;;15.20;83.20;;;;;;7340520;19;112822;-85
2022/03/10 11:12:10;;;;;;;31.73;16.85;;;15.30;82.70;;;;;;7339720;19;111878;-86
2022/03/10 11:14:37;;;;;;;34.97;18.70;;;15.40;82.70;;;;;;7340230;19;114796;-86
2022/03/10 11:17:07;;;;;;;33.28;17.40;;;15.50;82.40;;;;;;7339987;19;110239;-84
2022/03/10 11:19:44;;;;;;;30.75;17.10;;;15.60;81.80;;;;;;7347437;19;111382;-86
2022/03/10 11:22:14;;;;;;;33.78;17.92;;;15.60;80.90;;;;;;7341453;19;110412;-86
2022/03/10 11:24:44;;;;;;;30.35;17.73;;;15.70;81.20;;;;;;7333095;19;111576;-85
2022/03/10 11:27:18;;;;;;;27.40;16.98;;;15.80;80.70;;;;;;7339733;19;112036;-86
2022/03/10 11:29:49;;;;;;;32.05;17.00;;;15.90;79.90;;;;;;7339291;19;110254;-86
2022/03/10 11:32:16;;;;;;;30.98;16.55;;;15.90;80.60;;;;;;7340690;19;110952;-86
2022/03/10 11:34:49;;;;;;;27.40;16.67;;;16.00;79.70;;;;;;7338995;19;111781;-85
2022/03/10 11:37:42;;;;;;;30.85;17.48;;;16.10;78.70;;;;;;7339770;19;110313;-85
2022/03/10 11:40:30;;;;;;;30.73;17.10;;;16.20;77.50;;;;;;7339798;19;110583;-86
2022/03/10 11:43:01;;;;;;;28.40;16.42;;;16.30;78.90;;;;;;7342589;19;110515;-87
2022/03/10 11:45:30;;;;;;;31.08;15.98;;;16.40;77.40;;;;;;7340697;19;111463;-86
2022/03/10 11:48:28;;;;;;;30.05;16.45;;;16.50;75.70;;;;;;7338792;19;112166;-86
2022/03/10 11:50:56;;;;;;;29.88;17.70;;;16.60;76.50;;;;;;7338289;19;111089;-86
2022/03/10 11:53:23;;;;;;;25.98;16.52;;;16.70;77.50;;;;;;7338779;19;111350;-86
2022/03/10 11:55:53;;;;;;;28.98;15.68;;;16.80;76.40;;;;;;7333646;19;111785;-86
2022/03/10 11:58:32;;;;;;;23.70;15.23;;;16.90;76.60;;;;;;7340327;19;110597;-87
2022/03/10 12:01:05;;;;;;;29.00;16.17;;;17.10;74.40;;;;;;7339063;19;112060;-85
2022/03/10 12:03:47;;;;;;;21.30;13.98;;;17.20;73.80;;;;;;7340806;19;111104;-86
2022/03/10 12:06:17;;;;;;;24.95;15.15;;;17.30;73.00;;;;;;7339992;19;110290;-86
2022/03/10 12:09:02;;;;;;;29.30;15.27;;;17.40;74.00;;;;;;7338095;19;110921;-85
2022/03/10 12:11:47;;;;;;;24.25;14.57;;;17.50;71.70;;;;;;7338345;19;110735;-86
2022/03/10 12:14:25;;;;;;;22.98;14.85;;;17.60;71.30;;;;;;7339631;19;110417;-86
2022/03/10 12:16:52;;;;;;;21.63;13.30;;;17.70;71.00;;;;;;7336103;19;111753;-85
2022/03/10 12:19:40;;;;;;;26.30;15.02;;;17.70;71.00;;;;;;7337429;19;110364;-85
2022/03/10 12:22:10;;;;;;;23.52;14.60;;;17.80;69.50;;;;;;7339033;19;113594;-85
2022/03/10 12:24:37;;;;;;;25.38;14.82;;;17.90;68.80;;;;;;7338396;19;111849;-86
2022/03/10 12:27:06;;;;;;;26.20;14.82;;;17.90;69.70;;;;;;7344332;19;110369;-87
2022/03/10 12:29:47;;;;;;;22.27;14.07;;;18.00;68.90;;;;;;7339170;19;111877;-86
2022/03/10 12:32:27;;;;;;;24.58;14.00;;;18.00;69.20;;;;;;7336362;19;110481;-85
2022/03/10 12:35:10;;;;;;;23.92;12.77;;;18.20;69.00;;;;;;7334300;19;111365;-86
2022/03/10 12:38:00;;;;;;;22.40;12.90;;;18.40;66.90;;;;;;7335275;19;111718;-85
2022/03/10 12:40:42;;;;;;;19.23;12.30;;;18.50;67.50;;;;;;7336662;19;110164;-86